sensor_id;sensor_type;location;lat;lon;timestamp;pressure;altitude;pressure_sealevel;temperature;humidity
77702;BME280;66868;42.708;23.404;2024-03-25T00:02:00;93958.91;;;4.19;100.00
77702;BME280;66868;42.708;23.404;2024-03-25T00:04:25;93954.31;;;3.95;100.00
77702;BME280;66868;42.708;23.404;2024-03-25T00:06:51;93953.09;;;3.87;100.00
77702;BME280;66868;42.708;23.404;2024-03-25T00:09:17;93951.75;;;3.64;100.00
77702;BME280;66868;42.708;23.404;2024-03-25T00:11:43;93947.88;;;3.59;100.00
77702;BME280;66868;42.708;23.404;2024-03-25T00:14:08;93947.81;;;3.43;100.00
77702;BME280;66868;42.708;23.404;2024-03-25T00:16:34;93954.00;;;3.36;100.00
77702;BME280;66868;42.708;23.404;2024-03-25T00:19:00;93962.47;;;3.33;100.00
77702;BME280;66868;42.708;23.404;2024-03-25T00:21:26;93918.59;;;3.10;100.00
77702;BME280;66868;42.708;23.404;2024-03-25T00:23:52;93941.63;;;3.17;100.00
77702;BME280;66868;42.708;23.404;2024-03-25T00:26:17;93955.97;;;3.14;100.00
77702;BME280;66868;42.708;23.404;2024-03-25T00:28:43;93934.13;;;3.00;100.00
77702;BME280;66868;42.708;23.404;2024-03-25T00:31:09;93944.28;;;3.14;100.00
77702;BME280;66868;42.708;23.404;2024-03-25T00:33:34;93924.63;;;3.06;100.00
77702;BME280;66868;42.708;23.404;2024-03-25T00:36:00;93931.97;;;3.27;100.00
77702;BME280;66868;42.708;23.404;2024-03-25T00:38:25;93907.72;;;3.11;100.00
77702;BME280;66868;42.708;23.404;2024-03-25T00:40:51;93928.81;;;3.23;100.00
77702;BME280;66868;42.708;23.404;2024-03-25T00:43:16;93914.56;;;3.08;100.00
77702;BME280;66868;42.708;23.404;2024-03-25T00:45:42;93929.53;;;3.25;100.00
77702;BME280;66868;42.708;23.404;2024-03-25T00:48:08;93922.13;;;3.24;100.00
77702;BME280;66868;42.708;23.404;2024-03-25T00:50:33;93922.78;;;3.27;100.00
77702;BME280;66868;42.708;23.404;2024-03-25T00:52:59;93930.50;;;3.23;100.00
77702;BME280;66868;42.708;23.404;2024-03-25T00:55:25;93902.44;;;3.18;100.00
77702;BME280;66868;42.708;23.404;2024-03-25T00:57:50;93915.06;;;3.15;100.00
77702;BME280;66868;42.708;23.404;2024-03-25T01:00:16;93920.94;;;3.31;100.00
77702;BME280;66868;42.708;23.404;2024-03-25T01:02:42;93920.94;;;3.31;100.00
77702;BME280;66868;42.708;23.404;2024-03-25T01:05:08;93900.63;;;3.20;100.00
77702;BME280;66868;42.708;23.404;2024-03-25T01:07:34;93917.81;;;3.43;100.00
77702;BME280;66868;42.708;23.404;2024-03-25T01:09:59;93900.19;;;3.29;100.00
77702;BME280;66868;42.708;23.404;2024-03-25T01:12:25;93903.25;;;3.34;100.00
77702;BME280;66868;42.708;23.404;2024-03-25T01:14:52;93877.44;;;3.33;100.00
77702;BME280;66868;42.708;23.404;2024-03-25T01:17:17;93889.75;;;3.53;100.00
77702;BME280;66868;42.708;23.404;2024-03-25T01:19:43;93870.72;;;3.51;100.00
77702;BME280;66868;42.708;23.404;2024-03-25T01:22:08;93862.16;;;3.55;100.00
77702;BME280;66868;42.708;23.404;2024-03-25T01:24:34;93881.06;;;3.76;100.00
77702;BME280;66868;42.708;23.404;2024-03-25T01:27:00;93875.88;;;3.79;100.00
77702;BME280;66868;42.708;23.404;2024-03-25T01:29:25;93869.28;;;3.78;100.00
77702;BME280;66868;42.708;23.404;2024-03-25T01:31:51;93890.97;;;3.93;100.00
77702;BME280;66868;42.708;23.404;2024-03-25T01:34:17;93885.44;;;3.88;100.00
77702;BME280;66868;42.708;23.404;2024-03-25T01:36:42;93889.41;;;3.92;100.00
77702;BME280;66868;42.708;23.404;2024-03-25T01:39:08;93885.50;;;4.03;100.00
77702;BME280;66868;42.708;23.404;2024-03-25T01:41:34;93910.94;;;4.11;100.00
77702;BME280;66868;42.708;23.404;2024-03-25T01:44:00;93896.41;;;4.02;100.00
77702;BME280;66868;42.708;23.404;2024-03-25T01:46:27;93893.47;;;3.93;100.00
77702;BME280;66868;42.708;23.404;2024-03-25T01:48:53;93899.31;;;3.94;100.00
77702;BME280;66868;42.708;23.404;2024-03-25T01:51:20;93910.88;;;3.96;100.00
77702;BME280;66868;42.708;23.404;2024-03-25T01:53:47;93910.59;;;3.85;100.00
77702;BME280;66868;42.708;23.404;2024-03-25T01:56:14;93901.25;;;3.73;100.00
77702;BME280;66868;42.708;23.404;2024-03-25T01:58:40;93914.00;;;3.84;100.00
77702;BME280;66868;42.708;23.404;2024-03-25T02:01:06;93914.16;;;3.81;100.00
77702;BME280;66868;42.708;23.404;2024-03-25T02:03:33;93912.94;;;3.73;100.00
77702;BME280;66868;42.708;23.404;2024-03-25T02:06:02;93877.66;;;3.46;100.00
77702;BME280;66868;42.708;23.404;2024-03-25T02:08:29;93936.34;;;3.72;100.00
77702;BME280;66868;42.708;23.404;2024-03-25T02:10:56;93919.56;;;3.74;100.00
77702;BME280;66868;42.708;23.404;2024-03-25T02:13:23;93934.66;;;3.72;100.00
77702;BME280;66868;42.708;23.404;2024-03-25T02:15:49;93913.88;;;3.54;100.00
77702;BME280;66868;42.708;23.404;2024-03-25T02:18:18;93930.75;;;3.51;100.00
77702;BME280;66868;42.708;23.404;2024-03-25T02:20:45;93913.13;;;3.37;100.00
77702;BME280;66868;42.708;23.404;2024-03-25T02:23:11;93929.44;;;3.44;100.00
77702;BME280;66868;42.708;23.404;2024-03-25T02:25:38;93931.34;;;3.56;100.00
77702;BME280;66868;42.708;23.404;2024-03-25T02:28:04;93908.72;;;3.42;100.00
77702;BME280;66868;42.708;23.404;2024-03-25T02:30:30;93916.53;;;3.51;100.00
77702;BME280;66868;42.708;23.404;2024-03-25T02:32:55;93915.56;;;3.54;100.00
77702;BME280;66868;42.708;23.404;2024-03-25T02:35:22;93890.03;;;3.32;100.00
77702;BME280;66868;42.708;23.404;2024-03-25T02:37:51;93925.75;;;3.51;100.00
77702;BME280;66868;42.708;23.404;2024-03-25T02:40:18;93915.88;;;3.48;100.00
77702;BME280;66868;42.708;23.404;2024-03-25T02:42:44;93920.88;;;3.48;100.00
77702;BME280;66868;42.708;23.404;2024-03-25T02:45:10;93924.38;;;3.61;100.00
77702;BME280;66868;42.708;23.404;2024-03-25T02:47:35;93903.31;;;3.49;100.00
77702;BME280;66868;42.708;23.404;2024-03-25T02:50:01;93899.59;;;3.56;100.00
77702;BME280;66868;42.708;23.404;2024-03-25T02:52:27;93839.34;;;3.13;100.00
77702;BME280;66868;42.708;23.404;2024-03-25T02:54:52;93941.53;;;3.51;100.00
77702;BME280;66868;42.708;23.404;2024-03-25T02:57:19;93917.66;;;3.46;100.00
77702;BME280;66868;42.708;23.404;2024-03-25T02:59:45;93952.88;;;3.59;100.00
77702;BME280;66868;42.708;23.404;2024-03-25T03:02:10;93923.38;;;3.48;100.00
77702;BME280;66868;42.708;23.404;2024-03-25T03:04:36;93930.41;;;3.57;100.00
77702;BME280;66868;42.708;23.404;2024-03-25T03:07:01;93946.75;;;3.64;100.00
77702;BME280;66868;42.708;23.404;2024-03-25T03:09:27;93924.25;;;3.47;100.00
77702;BME280;66868;42.708;23.404;2024-03-25T03:11:52;93942.22;;;3.55;99.97
77702;BME280;66868;42.708;23.404;2024-03-25T03:14:18;93943.69;;;3.59;99.86
77702;BME280;66868;42.708;23.404;2024-03-25T03:16:43;93941.88;;;3.61;99.68
77702;BME280;66868;42.708;23.404;2024-03-25T03:19:09;93944.66;;;3.72;99.09
77702;BME280;66868;42.708;23.404;2024-03-25T03:21:35;93958.47;;;3.79;98.97
77702;BME280;66868;42.708;23.404;2024-03-25T03:24:02;93958.63;;;3.76;98.83
77702;BME280;66868;42.708;23.404;2024-03-25T03:26:27;93956.72;;;3.81;98.01
77702;BME280;66868;42.708;23.404;2024-03-25T03:28:56;93939.59;;;3.74;97.87
77702;BME280;66868;42.708;23.404;2024-03-25T03:31:22;93941.16;;;3.59;97.37
77702;BME280;66868;42.708;23.404;2024-03-25T03:33:50;93983.88;;;3.72;97.72
77702;BME280;66868;42.708;23.404;2024-03-25T03:36:18;93987.59;;;3.65;97.41
77702;BME280;66868;42.708;23.404;2024-03-25T03:38:45;93980.97;;;3.64;97.20
77702;BME280;66868;42.708;23.404;2024-03-25T03:41:10;93983.69;;;3.59;98.04
77702;BME280;66868;42.708;23.404;2024-03-25T03:43:36;93981.31;;;3.73;96.88
77702;BME280;66868;42.708;23.404;2024-03-25T03:46:02;93978.66;;;3.76;96.86
77702;BME280;66868;42.708;23.404;2024-03-25T03:48:29;93980.44;;;3.74;97.54
77702;BME280;66868;42.708;23.404;2024-03-25T03:50:54;93976.31;;;3.73;97.33
77702;BME280;66868;42.708;23.404;2024-03-25T03:53:20;93984.22;;;3.81;96.81
77702;BME280;66868;42.708;23.404;2024-03-25T03:55:59;93979.53;;;3.75;96.84
77702;BME280;66868;42.708;23.404;2024-03-25T03:58:25;93971.44;;;3.70;97.27
77702;BME280;66868;42.708;23.404;2024-03-25T04:00:51;93979.97;;;3.83;95.97
77702;BME280;66868;42.708;23.404;2024-03-25T04:03:18;93984.88;;;3.85;96.22
77702;BME280;66868;42.708;23.404;2024-03-25T04:05:44;93990.88;;;3.82;95.75
77702;BME280;66868;42.708;23.404;2024-03-25T04:08:10;93999.25;;;3.81;95.77
77702;BME280;66868;42.708;23.404;2024-03-25T04:10:35;94006.47;;;3.70;97.00
77702;BME280;66868;42.708;23.404;2024-03-25T04:13:01;93992.50;;;3.66;95.71
77702;BME280;66868;42.708;23.404;2024-03-25T04:15:27;94017.81;;;3.77;95.80
77702;BME280;66868;42.708;23.404;2024-03-25T04:17:52;94009.56;;;3.75;95.57
77702;BME280;66868;42.708;23.404;2024-03-25T04:20:18;94021.78;;;3.81;95.99
77702;BME280;66868;42.708;23.404;2024-03-25T04:22:44;94000.69;;;3.70;96.41
77702;BME280;66868;42.708;23.404;2024-03-25T04:25:11;94025.31;;;3.77;96.97
77702;BME280;66868;42.708;23.404;2024-03-25T04:27:40;94048.13;;;3.71;97.61
77702;BME280;66868;42.708;23.404;2024-03-25T04:30:06;94050.28;;;3.79;97.42
77702;BME280;66868;42.708;23.404;2024-03-25T04:32:33;94045.75;;;3.85;96.81
77702;BME280;66868;42.708;23.404;2024-03-25T04:34:59;94037.91;;;3.76;97.30
77702;BME280;66868;42.708;23.404;2024-03-25T04:37:25;94043.88;;;3.73;97.61
77702;BME280;66868;42.708;23.404;2024-03-25T04:39:51;94003.75;;;3.42;97.25
77702;BME280;66868;42.708;23.404;2024-03-25T04:42:16;94068.03;;;3.74;97.41
77702;BME280;66868;42.708;23.404;2024-03-25T04:44:42;94069.94;;;3.69;97.14
77702;BME280;66868;42.708;23.404;2024-03-25T04:47:07;94041.31;;;3.58;97.19
77702;BME280;66868;42.708;23.404;2024-03-25T04:49:33;94080.22;;;3.80;97.08
77702;BME280;66868;42.708;23.404;2024-03-25T04:51:58;94103.03;;;3.91;96.87
77702;BME280;66868;42.708;23.404;2024-03-25T04:54:23;94083.06;;;3.90;96.74
77702;BME280;66868;42.708;23.404;2024-03-25T04:56:49;94078.59;;;3.96;96.29
77702;BME280;66868;42.708;23.404;2024-03-25T04:59:14;94081.81;;;3.98;97.22
77702;BME280;66868;42.708;23.404;2024-03-25T05:01:40;94090.88;;;4.01;97.00
77702;BME280;66868;42.708;23.404;2024-03-25T05:04:05;94089.09;;;4.03;96.06
77702;BME280;66868;42.708;23.404;2024-03-25T05:06:34;94057.41;;;3.86;95.64
77702;BME280;66868;42.708;23.404;2024-03-25T05:09:00;94064.03;;;3.87;95.72
77702;BME280;66868;42.708;23.404;2024-03-25T05:11:26;94076.66;;;4.02;95.51
77702;BME280;66868;42.708;23.404;2024-03-25T05:13:51;94079.22;;;4.00;95.51
77702;BME280;66868;42.708;23.404;2024-03-25T05:16:17;94084.25;;;4.00;95.94
77702;BME280;66868;42.708;23.404;2024-03-25T05:18:42;94067.59;;;3.99;95.49
77702;BME280;66868;42.708;23.404;2024-03-25T05:21:08;94082.81;;;4.12;95.24
77702;BME280;66868;42.708;23.404;2024-03-25T05:23:33;94071.25;;;4.09;94.70
77702;BME280;66868;42.708;23.404;2024-03-25T05:25:58;94093.91;;;4.23;94.80
77702;BME280;66868;42.708;23.404;2024-03-25T05:28:24;94090.44;;;4.26;94.13
77702;BME280;66868;42.708;23.404;2024-03-25T05:30:50;94063.28;;;4.18;94.35
77702;BME280;66868;42.708;23.404;2024-03-25T05:33:15;94078.38;;;4.17;93.73
77702;BME280;66868;42.708;23.404;2024-03-25T05:35:41;94088.03;;;4.24;92.78
77702;BME280;66868;42.708;23.404;2024-03-25T05:38:06;94086.47;;;4.22;93.84
77702;BME280;66868;42.708;23.404;2024-03-25T05:40:32;94063.75;;;4.09;93.32
77702;BME280;66868;42.708;23.404;2024-03-25T05:42:58;94075.97;;;4.15;92.95
77702;BME280;66868;42.708;23.404;2024-03-25T05:45:23;94113.56;;;4.31;92.29
77702;BME280;66868;42.708;23.404;2024-03-25T05:47:52;94095.13;;;4.32;92.72
77702;BME280;66868;42.708;23.404;2024-03-25T05:50:17;94118.44;;;4.34;91.91
77702;BME280;66868;42.708;23.404;2024-03-25T05:52:43;94113.56;;;4.31;93.13
77702;BME280;66868;42.708;23.404;2024-03-25T05:55:09;94104.75;;;4.24;92.34
77702;BME280;66868;42.708;23.404;2024-03-25T05:57:37;94115.06;;;4.18;92.03
77702;BME280;66868;42.708;23.404;2024-03-25T06:00:03;94125.03;;;4.35;92.20
77702;BME280;66868;42.708;23.404;2024-03-25T06:02:29;94090.31;;;4.12;92.46
77702;BME280;66868;42.708;23.404;2024-03-25T06:04:55;94134.56;;;4.28;92.00
77702;BME280;66868;42.708;23.404;2024-03-25T06:07:22;94145.59;;;4.41;91.09
77702;BME280;66868;42.708;23.404;2024-03-25T06:09:47;94153.16;;;4.40;91.33
77702;BME280;66868;42.708;23.404;2024-03-25T06:12:13;94141.31;;;4.59;93.18
77702;BME280;66868;42.708;23.404;2024-03-25T06:14:39;94132.63;;;4.66;92.00
77702;BME280;66868;42.708;23.404;2024-03-25T06:17:04;94160.06;;;4.85;90.84
77702;BME280;66868;42.708;23.404;2024-03-25T06:19:30;94148.09;;;4.90;89.82
77702;BME280;66868;42.708;23.404;2024-03-25T06:21:55;94160.22;;;4.98;89.68
77702;BME280;66868;42.708;23.404;2024-03-25T06:24:21;94145.19;;;4.98;89.93
77702;BME280;66868;42.708;23.404;2024-03-25T06:26:46;94115.78;;;4.68;88.06
77702;BME280;66868;42.708;23.404;2024-03-25T06:29:12;94182.25;;;5.08;88.23
77702;BME280;66868;42.708;23.404;2024-03-25T06:31:37;94153.88;;;4.90;86.68
77702;BME280;66868;42.708;23.404;2024-03-25T06:34:21;94156.00;;;4.67;87.02
77702;BME280;66868;42.708;23.404;2024-03-25T06:36:49;94169.28;;;4.84;87.24
77702;BME280;66868;42.708;23.404;2024-03-25T06:39:15;94181.63;;;4.87;87.75
77702;BME280;66868;42.708;23.404;2024-03-25T06:41:40;94191.38;;;4.94;87.72
77702;BME280;66868;42.708;23.404;2024-03-25T06:44:06;94195.63;;;4.92;88.01
77702;BME280;66868;42.708;23.404;2024-03-25T06:46:32;94178.50;;;4.84;86.25
77702;BME280;66868;42.708;23.404;2024-03-25T06:48:58;94179.53;;;4.80;86.87
77702;BME280;66868;42.708;23.404;2024-03-25T06:51:23;94169.75;;;4.75;86.29
77702;BME280;66868;42.708;23.404;2024-03-25T06:53:49;94189.31;;;5.00;88.34
77702;BME280;66868;42.708;23.404;2024-03-25T06:56:14;94198.88;;;4.94;87.10
77702;BME280;66868;42.708;23.404;2024-03-25T06:58:40;94202.44;;;5.05;87.27
77702;BME280;66868;42.708;23.404;2024-03-25T07:01:07;94206.41;;;5.09;86.13
77702;BME280;66868;42.708;23.404;2024-03-25T07:03:33;94194.53;;;5.13;86.73
77702;BME280;66868;42.708;23.404;2024-03-25T07:05:59;94195.50;;;5.26;86.94
77702;BME280;66868;42.708;23.404;2024-03-25T07:08:28;94200.19;;;5.32;86.04
77702;BME280;66868;42.708;23.404;2024-03-25T07:10:55;94203.13;;;5.40;86.35
77702;BME280;66868;42.708;23.404;2024-03-25T07:13:21;94220.34;;;5.46;84.99
77702;BME280;66868;42.708;23.404;2024-03-25T07:15:47;94212.34;;;5.40;84.64
77702;BME280;66868;42.708;23.404;2024-03-25T07:18:12;94212.00;;;5.46;86.18
77702;BME280;66868;42.708;23.404;2024-03-25T07:20:42;94231.59;;;5.70;84.78
77702;BME280;66868;42.708;23.404;2024-03-25T07:23:08;94239.28;;;5.67;84.90
77702;BME280;66868;42.708;23.404;2024-03-25T07:25:34;94227.38;;;5.71;85.41
77702;BME280;66868;42.708;23.404;2024-03-25T07:28:00;94243.06;;;5.74;83.57
77702;BME280;66868;42.708;23.404;2024-03-25T07:30:26;94232.88;;;5.77;82.05
77702;BME280;66868;42.708;23.404;2024-03-25T07:32:58;94248.91;;;5.75;81.32
77702;BME280;66868;42.708;23.404;2024-03-25T07:35:24;94237.72;;;5.81;81.66
77702;BME280;66868;42.708;23.404;2024-03-25T07:37:50;94255.03;;;5.87;83.92
77702;BME280;66868;42.708;23.404;2024-03-25T07:40:21;94251.19;;;5.95;82.60
77702;BME280;66868;42.708;23.404;2024-03-25T07:42:48;94244.28;;;5.99;82.60
77702;BME280;66868;42.708;23.404;2024-03-25T07:45:14;94242.72;;;6.12;82.48
77702;BME280;66868;42.708;23.404;2024-03-25T07:47:40;94235.81;;;6.15;82.20
77702;BME280;66868;42.708;23.404;2024-03-25T07:50:06;94266.50;;;6.36;80.94
77702;BME280;66868;42.708;23.404;2024-03-25T07:52:32;94256.78;;;6.30;79.33
77702;BME280;66868;42.708;23.404;2024-03-25T07:54:57;94246.38;;;6.36;79.88
77702;BME280;66868;42.708;23.404;2024-03-25T07:57:23;94225.34;;;6.23;82.41
77702;BME280;66868;42.708;23.404;2024-03-25T07:59:48;94239.72;;;6.35;80.59
77702;BME280;66868;42.708;23.404;2024-03-25T08:02:15;94229.63;;;6.21;78.45
77702;BME280;66868;42.708;23.404;2024-03-25T08:04:40;94245.75;;;6.33;79.20
77702;BME280;66868;42.708;23.404;2024-03-25T08:07:07;94242.44;;;6.32;80.27
77702;BME280;66868;42.708;23.404;2024-03-25T08:09:32;94243.53;;;6.42;79.17
77702;BME280;66868;42.708;23.404;2024-03-25T08:11:58;94258.19;;;6.50;76.64
77702;BME280;66868;42.708;23.404;2024-03-25T08:14:23;94243.78;;;6.38;76.75
77702;BME280;66868;42.708;23.404;2024-03-25T08:16:49;94261.13;;;6.42;77.93
77702;BME280;66868;42.708;23.404;2024-03-25T08:19:15;94249.00;;;6.49;80.05
77702;BME280;66868;42.708;23.404;2024-03-25T08:21:40;94256.94;;;6.71;77.50
77702;BME280;66868;42.708;23.404;2024-03-25T08:24:06;94263.78;;;6.69;78.12
77702;BME280;66868;42.708;23.404;2024-03-25T08:26:31;94261.69;;;6.61;76.96
77702;BME280;66868;42.708;23.404;2024-03-25T08:28:57;94298.81;;;6.72;76.93
77702;BME280;66868;42.708;23.404;2024-03-25T08:31:22;94246.88;;;6.71;78.25
77702;BME280;66868;42.708;23.404;2024-03-25T08:33:48;94303.88;;;7.00;75.28
77702;BME280;66868;42.708;23.404;2024-03-25T08:36:13;94250.66;;;6.64;77.38
77702;BME280;66868;42.708;23.404;2024-03-25T08:38:39;94265.50;;;6.83;75.58
77702;BME280;66868;42.708;23.404;2024-03-25T08:41:04;94279.72;;;6.98;77.04
77702;BME280;66868;42.708;23.404;2024-03-25T08:43:30;94281.69;;;7.21;74.69
77702;BME280;66868;42.708;23.404;2024-03-25T08:45:55;94289.25;;;7.07;75.45
77702;BME280;66868;42.708;23.404;2024-03-25T08:48:22;94284.19;;;7.35;76.24
77702;BME280;66868;42.708;23.404;2024-03-25T08:50:48;94273.94;;;7.38;75.04
77702;BME280;66868;42.708;23.404;2024-03-25T08:53:14;94276.56;;;7.37;72.09
77702;BME280;66868;42.708;23.404;2024-03-25T08:55:46;94285.72;;;7.52;73.98
77702;BME280;66868;42.708;23.404;2024-03-25T08:58:13;94273.53;;;7.59;73.77
77702;BME280;66868;42.708;23.404;2024-03-25T09:00:39;94272.00;;;7.70;73.20
77702;BME280;66868;42.708;23.404;2024-03-25T09:03:04;94303.72;;;7.87;70.14
77702;BME280;66868;42.708;23.404;2024-03-25T09:05:30;94279.91;;;7.78;71.19
77702;BME280;66868;42.708;23.404;2024-03-25T09:07:55;94266.78;;;7.73;72.14
77702;BME280;66868;42.708;23.404;2024-03-25T09:10:24;94284.94;;;8.05;72.47
77702;BME280;66868;42.708;23.404;2024-03-25T09:13:08;94288.09;;;8.09;71.96
77702;BME280;66868;42.708;23.404;2024-03-25T09:15:34;94293.03;;;8.10;71.27
77702;BME280;66868;42.708;23.404;2024-03-25T09:17:59;94276.44;;;8.20;71.79
77702;BME280;66868;42.708;23.404;2024-03-25T09:20:25;94302.53;;;8.19;69.07
77702;BME280;66868;42.708;23.404;2024-03-25T09:22:51;94303.78;;;7.99;72.04
77702;BME280;66868;42.708;23.404;2024-03-25T09:25:17;94318.06;;;8.13;70.16
77702;BME280;66868;42.708;23.404;2024-03-25T09:27:47;94318.16;;;8.12;70.20
77702;BME280;66868;42.708;23.404;2024-03-25T09:30:13;94293.00;;;7.97;69.28
77702;BME280;66868;42.708;23.404;2024-03-25T09:32:42;94317.09;;;8.02;70.56
77702;BME280;66868;42.708;23.404;2024-03-25T09:35:08;94320.22;;;8.05;70.45
77702;BME280;66868;42.708;23.404;2024-03-25T09:37:34;94271.56;;;7.64;69.14
77702;BME280;66868;42.708;23.404;2024-03-25T09:40:00;94326.50;;;7.85;67.86
77702;BME280;66868;42.708;23.404;2024-03-25T09:42:26;94312.75;;;7.77;69.66
77702;BME280;66868;42.708;23.404;2024-03-25T09:44:56;94309.34;;;7.64;71.50
77702;BME280;66868;42.708;23.404;2024-03-25T09:47:22;94307.38;;;7.54;69.74
77702;BME280;66868;42.708;23.404;2024-03-25T09:49:48;94326.44;;;7.59;70.65
77702;BME280;66868;42.708;23.404;2024-03-25T09:52:17;94341.53;;;7.59;72.35
77702;BME280;66868;42.708;23.404;2024-03-25T09:54:44;94322.94;;;7.61;72.03
77702;BME280;66868;42.708;23.404;2024-03-25T09:57:09;94317.09;;;7.61;70.81
77702;BME280;66868;42.708;23.404;2024-03-25T09:59:36;94320.22;;;7.64;71.83
77702;BME280;66868;42.708;23.404;2024-03-25T10:02:03;94310.34;;;7.61;72.59
77702;BME280;66868;42.708;23.404;2024-03-25T10:04:29;94322.31;;;7.72;70.40
77702;BME280;66868;42.708;23.404;2024-03-25T10:06:56;94300.16;;;7.77;70.07
77702;BME280;66868;42.708;23.404;2024-03-25T10:09:22;94311.66;;;7.81;69.88
77702;BME280;66868;42.708;23.404;2024-03-25T10:11:48;94306.72;;;7.65;70.45
77702;BME280;66868;42.708;23.404;2024-03-25T10:14:17;94325.78;;;7.69;71.34
77702;BME280;66868;42.708;23.404;2024-03-25T10:16:44;94325.72;;;7.57;70.34
77702;BME280;66868;42.708;23.404;2024-03-25T10:19:10;94315.53;;;7.72;69.98
77702;BME280;66868;42.708;23.404;2024-03-25T10:21:36;94275.16;;;7.60;70.11
77702;BME280;66868;42.708;23.404;2024-03-25T10:24:04;94294.72;;;7.83;68.96
77702;BME280;66868;42.708;23.404;2024-03-25T10:26:32;94317.38;;;7.97;67.84
77702;BME280;66868;42.708;23.404;2024-03-25T10:29:05;94312.75;;;8.18;67.20
77702;BME280;66868;42.708;23.404;2024-03-25T10:31:34;94328.09;;;8.27;67.48
77702;BME280;66868;42.708;23.404;2024-03-25T10:34:00;94314.53;;;8.42;66.96
77702;BME280;66868;42.708;23.404;2024-03-25T10:36:26;94313.81;;;8.80;64.70
77702;BME280;66868;42.708;23.404;2024-03-25T10:38:57;94317.06;;;9.07;63.60
77702;BME280;66868;42.708;23.404;2024-03-25T10:41:23;94307.47;;;9.12;62.34
77702;BME280;66868;42.708;23.404;2024-03-25T10:43:52;94325.78;;;9.28;61.39
77702;BME280;66868;42.708;23.404;2024-03-25T10:46:20;94320.31;;;9.22;60.50
77702;BME280;66868;42.708;23.404;2024-03-25T10:48:54;94313.44;;;9.11;60.75
77702;BME280;66868;42.708;23.404;2024-03-25T10:51:25;94304.34;;;9.21;60.04
77702;BME280;66868;42.708;23.404;2024-03-25T10:53:52;94293.75;;;9.16;60.85
77702;BME280;66868;42.708;23.404;2024-03-25T10:56:21;94283.47;;;9.19;60.53
77702;BME280;66868;42.708;23.404;2024-03-25T10:58:50;94282.53;;;9.20;61.15
77702;BME280;66868;42.708;23.404;2024-03-25T11:01:17;94306.88;;;9.21;61.03
77702;BME280;66868;42.708;23.404;2024-03-25T11:03:45;94331.63;;;9.16;58.95
77702;BME280;66868;42.708;23.404;2024-03-25T11:06:11;94303.94;;;8.90;58.86
77702;BME280;66868;42.708;23.404;2024-03-25T11:08:37;94298.50;;;8.83;60.77
77702;BME280;66868;42.708;23.404;2024-03-25T11:11:05;94298.91;;;9.02;60.73
77702;BME280;66868;42.708;23.404;2024-03-25T11:13:31;94305.78;;;9.00;59.79
77702;BME280;66868;42.708;23.404;2024-03-25T11:15:57;94301.13;;;9.19;60.47
77702;BME280;66868;42.708;23.404;2024-03-25T11:18:25;94307.78;;;9.33;61.54
77702;BME280;66868;42.708;23.404;2024-03-25T11:21:03;94347.69;;;9.41;59.28
77702;BME280;66868;42.708;23.404;2024-03-25T11:24:05;94322.53;;;9.52;60.99
77702;BME280;66868;42.708;23.404;2024-03-25T11:26:31;94330.81;;;9.54;61.35
77702;BME280;66868;42.708;23.404;2024-03-25T11:29:00;94283.66;;;9.29;59.62
77702;BME280;66868;42.708;23.404;2024-03-25T11:31:26;94319.09;;;9.27;62.10
77702;BME280;66868;42.708;23.404;2024-03-25T11:33:53;94340.50;;;9.35;63.75
77702;BME280;66868;42.708;23.404;2024-03-25T11:36:18;94324.53;;;9.59;63.45
77702;BME280;66868;42.708;23.404;2024-03-25T11:38:46;94338.06;;;9.58;60.81
77702;BME280;66868;42.708;23.404;2024-03-25T11:41:12;94355.06;;;9.44;60.80
77702;BME280;66868;42.708;23.404;2024-03-25T11:43:37;94330.19;;;9.50;60.56
77702;BME280;66868;42.708;23.404;2024-03-25T11:46:03;94312.22;;;9.42;62.44
77702;BME280;66868;42.708;23.404;2024-03-25T11:48:29;94307.19;;;9.42;63.69
77702;BME280;66868;42.708;23.404;2024-03-25T11:50:55;94276.66;;;9.45;63.27
77702;BME280;66868;42.708;23.404;2024-03-25T11:53:20;94314.22;;;9.75;63.86
77702;BME280;66868;42.708;23.404;2024-03-25T11:55:49;94342.28;;;9.83;62.63
77702;BME280;66868;42.708;23.404;2024-03-25T11:58:14;94339.47;;;9.75;62.55
77702;BME280;66868;42.708;23.404;2024-03-25T12:00:47;94348.47;;;9.79;62.90
77702;BME280;66868;42.708;23.404;2024-03-25T12:03:17;94365.78;;;9.60;61.16
77702;BME280;66868;42.708;23.404;2024-03-25T12:05:45;94322.13;;;9.45;63.11
77702;BME280;66868;42.708;23.404;2024-03-25T12:08:11;94334.47;;;9.86;61.67
77702;BME280;66868;42.708;23.404;2024-03-25T12:10:38;94328.31;;;9.90;59.87
77702;BME280;66868;42.708;23.404;2024-03-25T12:13:23;94336.19;;;9.98;60.01
77702;BME280;66868;42.708;23.404;2024-03-25T12:15:53;94315.81;;;10.12;59.95
77702;BME280;66868;42.708;23.404;2024-03-25T12:18:18;94342.69;;;10.50;57.92
77702;BME280;66868;42.708;23.404;2024-03-25T12:20:47;94306.41;;;10.62;57.75
77702;BME280;66868;42.708;23.404;2024-03-25T12:23:13;94332.75;;;10.94;56.25
77702;BME280;66868;42.708;23.404;2024-03-25T12:25:39;94328.91;;;11.35;56.25
77702;BME280;66868;42.708;23.404;2024-03-25T12:28:09;94328.47;;;11.85;53.35
77702;BME280;66868;42.708;23.404;2024-03-25T12:30:49;94319.38;;;12.69;52.15
77702;BME280;66868;42.708;23.404;2024-03-25T12:33:15;94342.56;;;13.89;48.81
77702;BME280;66868;42.708;23.404;2024-03-25T12:35:41;94338.44;;;14.37;47.77
77702;BME280;66868;42.708;23.404;2024-03-25T12:38:06;94341.09;;;15.41;45.30
77702;BME280;66868;42.708;23.404;2024-03-25T12:40:32;94341.53;;;16.56;41.48
77702;BME280;66868;42.708;23.404;2024-03-25T12:42:58;94325.66;;;17.15;39.98
77702;BME280;66868;42.708;23.404;2024-03-25T12:45:24;94359.53;;;17.86;38.01
77702;BME280;66868;42.708;23.404;2024-03-25T12:47:52;94332.44;;;17.76;37.40
77702;BME280;66868;42.708;23.404;2024-03-25T12:50:18;94334.09;;;18.27;36.04
77702;BME280;66868;42.708;23.404;2024-03-25T12:52:49;94343.03;;;18.15;35.11
77702;BME280;66868;42.708;23.404;2024-03-25T12:55:14;94340.81;;;16.73;36.66